sensor_id;sensor_type;location;lat;lon;timestamp;P1;durP1;ratioP1;P2;durP2;ratioP2
77814;SDS011;67002;52.124;21.210;2023-02-15T00:02:04;53.10;;;27.50;;
77814;SDS011;67002;52.124;21.210;2023-02-15T00:07:16;53.30;;;24.50;;
77814;SDS011;67002;52.124;21.210;2023-02-15T00:09:45;60.30;;;26.70;;
77814;SDS011;67002;52.124;21.210;2023-02-15T00:14:41;59.00;;;25.70;;
77814;SDS011;67002;52.124;21.210;2023-02-15T00:17:10;42.60;;;19.40;;
77814;SDS011;67002;52.124;21.210;2023-02-15T00:19:38;59.10;;;25.70;;
77814;SDS011;67002;52.124;21.210;2023-02-15T00:22:07;55.40;;;25.00;;
77814;SDS011;67002;52.124;21.210;2023-02-15T00:24:35;50.40;;;22.30;;
77814;SDS011;67002;52.124;21.210;2023-02-15T00:27:04;52.90;;;25.60;;
77814;SDS011;67002;52.124;21.210;2023-02-15T00:29:32;54.00;;;24.10;;
77814;SDS011;67002;52.124;21.210;2023-02-15T00:32:00;58.20;;;25.70;;
77814;SDS011;67002;52.124;21.210;2023-02-15T00:34:29;54.40;;;24.90;;
77814;SDS011;67002;52.124;21.210;2023-02-15T00:36:57;59.30;;;26.60;;
77814;SDS011;67002;52.124;21.210;2023-02-15T00:39:26;52.60;;;23.40;;
77814;SDS011;67002;52.124;21.210;2023-02-15T00:41:55;52.80;;;24.50;;
77814;SDS011;67002;52.124;21.210;2023-02-15T00:44:24;52.50;;;23.80;;
77814;SDS011;67002;52.124;21.210;2023-02-15T00:46:52;45.90;;;21.60;;
77814;SDS011;67002;52.124;21.210;2023-02-15T00:49:20;53.10;;;25.20;;
77814;SDS011;67002;52.124;21.210;2023-02-15T00:51:49;56.60;;;24.00;;
77814;SDS011;67002;52.124;21.210;2023-02-15T00:54:17;57.10;;;23.00;;
77814;SDS011;67002;52.124;21.210;2023-02-15T00:56:46;50.00;;;22.80;;
77814;SDS011;67002;52.124;21.210;2023-02-15T00:59:14;50.80;;;24.50;;
77814;SDS011;67002;52.124;21.210;2023-02-15T01:01:42;55.00;;;26.00;;
77814;SDS011;67002;52.124;21.210;2023-02-15T01:04:12;57.00;;;26.50;;
77814;SDS011;67002;52.124;21.210;2023-02-15T01:06:40;50.20;;;23.90;;
77814;SDS011;67002;52.124;21.210;2023-02-15T01:09:10;50.60;;;21.90;;
77814;SDS011;67002;52.124;21.210;2023-02-15T01:11:39;48.90;;;22.10;;
77814;SDS011;67002;52.124;21.210;2023-02-15T01:14:07;41.20;;;18.10;;
77814;SDS011;67002;52.124;21.210;2023-02-15T01:16:38;49.80;;;20.90;;
77814;SDS011;67002;52.124;21.210;2023-02-15T01:19:07;44.20;;;20.30;;
77814;SDS011;67002;52.124;21.210;2023-02-15T01:21:35;40.70;;;17.40;;
77814;SDS011;67002;52.124;21.210;2023-02-15T01:24:03;44.00;;;18.90;;
77814;SDS011;67002;52.124;21.210;2023-02-15T01:26:32;36.80;;;18.10;;
77814;SDS011;67002;52.124;21.210;2023-02-15T01:29:00;37.40;;;18.50;;
77814;SDS011;67002;52.124;21.210;2023-02-15T01:31:29;44.50;;;20.20;;
77814;SDS011;67002;52.124;21.210;2023-02-15T01:33:57;39.10;;;19.40;;
77814;SDS011;67002;52.124;21.210;2023-02-15T01:36:25;50.10;;;21.40;;
77814;SDS011;67002;52.124;21.210;2023-02-15T01:38:54;45.90;;;19.90;;
77814;SDS011;67002;52.124;21.210;2023-02-15T01:41:22;44.50;;;18.80;;
77814;SDS011;67002;52.124;21.210;2023-02-15T01:43:51;39.50;;;17.30;;
77814;SDS011;67002;52.124;21.210;2023-02-15T01:46:23;30.10;;;14.60;;
77814;SDS011;67002;52.124;21.210;2023-02-15T01:48:56;44.50;;;19.60;;
77814;SDS011;67002;52.124;21.210;2023-02-15T01:51:29;43.00;;;17.80;;
77814;SDS011;67002;52.124;21.210;2023-02-15T01:54:00;44.00;;;19.20;;
77814;SDS011;67002;52.124;21.210;2023-02-15T01:56:33;38.90;;;18.30;;
77814;SDS011;67002;52.124;21.210;2023-02-15T01:59:04;41.50;;;19.20;;
77814;SDS011;67002;52.124;21.210;2023-02-15T02:01:35;41.30;;;17.70;;
77814;SDS011;67002;52.124;21.210;2023-02-15T02:04:07;46.90;;;20.20;;
77814;SDS011;67002;52.124;21.210;2023-02-15T02:06:39;41.10;;;18.50;;
77814;SDS011;67002;52.124;21.210;2023-02-15T02:09:07;38.30;;;17.90;;
77814;SDS011;67002;52.124;21.210;2023-02-15T02:11:37;37.20;;;17.50;;
77814;SDS011;67002;52.124;21.210;2023-02-15T02:14:06;37.60;;;18.20;;
77814;SDS011;67002;52.124;21.210;2023-02-15T02:16:37;40.60;;;18.30;;
77814;SDS011;67002;52.124;21.210;2023-02-15T02:19:16;39.00;;;18.10;;
77814;SDS011;67002;52.124;21.210;2023-02-15T02:22:04;39.70;;;17.10;;
77814;SDS011;67002;52.124;21.210;2023-02-15T02:27:41;41.80;;;18.80;;
77814;SDS011;67002;52.124;21.210;2023-02-15T02:30:17;39.80;;;18.90;;
77814;SDS011;67002;52.124;21.210;2023-02-15T02:35:59;36.70;;;18.10;;
77814;SDS011;67002;52.124;21.210;2023-02-15T02:38:35;39.70;;;19.20;;
77814;SDS011;67002;52.124;21.210;2023-02-15T02:41:23;36.20;;;16.20;;
77814;SDS011;67002;52.124;21.210;2023-02-15T02:43:55;38.80;;;18.90;;
77814;SDS011;67002;52.124;21.210;2023-02-15T02:46:32;37.70;;;17.60;;
77814;SDS011;67002;52.124;21.210;2023-02-15T02:49:02;30.20;;;15.40;;
77814;SDS011;67002;52.124;21.210;2023-02-15T02:51:30;33.80;;;16.60;;
77814;SDS011;67002;52.124;21.210;2023-02-15T02:53:59;40.70;;;18.80;;
77814;SDS011;67002;52.124;21.210;2023-02-15T02:56:33;35.70;;;17.90;;
77814;SDS011;67002;52.124;21.210;2023-02-15T02:59:05;40.00;;;17.00;;
77814;SDS011;67002;52.124;21.210;2023-02-15T03:01:39;36.10;;;17.70;;
77814;SDS011;67002;52.124;21.210;2023-02-15T03:04:10;41.50;;;19.60;;
77814;SDS011;67002;52.124;21.210;2023-02-15T03:06:42;32.10;;;16.50;;
77814;SDS011;67002;52.124;21.210;2023-02-15T03:09:16;37.10;;;17.70;;
77814;SDS011;67002;52.124;21.210;2023-02-15T03:11:48;36.20;;;18.10;;
77814;SDS011;67002;52.124;21.210;2023-02-15T03:14:17;39.30;;;19.90;;
77814;SDS011;67002;52.124;21.210;2023-02-15T03:16:46;43.10;;;18.20;;
77814;SDS011;67002;52.124;21.210;2023-02-15T03:19:16;37.20;;;18.10;;
77814;SDS011;67002;52.124;21.210;2023-02-15T03:21:47;38.00;;;17.20;;
77814;SDS011;67002;52.124;21.210;2023-02-15T03:24:25;39.90;;;17.90;;
77814;SDS011;67002;52.124;21.210;2023-02-15T03:26:55;40.90;;;17.20;;
77814;SDS011;67002;52.124;21.210;2023-02-15T03:29:26;35.10;;;18.20;;
77814;SDS011;67002;52.124;21.210;2023-02-15T03:31:56;34.10;;;16.10;;
77814;SDS011;67002;52.124;21.210;2023-02-15T03:34:27;37.90;;;18.80;;
77814;SDS011;67002;52.124;21.210;2023-02-15T03:36:57;39.40;;;17.80;;
77814;SDS011;67002;52.124;21.210;2023-02-15T03:39:31;31.10;;;15.80;;
77814;SDS011;67002;52.124;21.210;2023-02-15T03:42:05;36.40;;;17.70;;
77814;SDS011;67002;52.124;21.210;2023-02-15T03:44:38;37.30;;;17.40;;
77814;SDS011;67002;52.124;21.210;2023-02-15T03:47:11;35.30;;;17.50;;
77814;SDS011;67002;52.124;21.210;2023-02-15T03:49:43;36.40;;;16.80;;
77814;SDS011;67002;52.124;21.210;2023-02-15T03:52:14;36.20;;;15.80;;
77814;SDS011;67002;52.124;21.210;2023-02-15T03:54:44;33.10;;;14.80;;
77814;SDS011;67002;52.124;21.210;2023-02-15T03:57:14;38.70;;;17.90;;
77814;SDS011;67002;52.124;21.210;2023-02-15T04:00:04;41.10;;;17.00;;
77814;SDS011;67002;52.124;21.210;2023-02-15T04:05:45;32.50;;;14.70;;
77814;SDS011;67002;52.124;21.210;2023-02-15T04:08:13;31.40;;;15.00;;
77814;SDS011;67002;52.124;21.210;2023-02-15T04:10:41;30.00;;;12.60;;
77814;SDS011;67002;52.124;21.210;2023-02-15T04:13:24;40.20;;;15.20;;
77814;SDS011;67002;52.124;21.210;2023-02-15T04:15:57;36.20;;;17.40;;
77814;SDS011;67002;52.124;21.210;2023-02-15T04:18:35;36.50;;;16.60;;
77814;SDS011;67002;52.124;21.210;2023-02-15T04:21:23;35.70;;;16.80;;
77814;SDS011;67002;52.124;21.210;2023-02-15T04:24:11;38.00;;;17.60;;
77814;SDS011;67002;52.124;21.210;2023-02-15T04:26:58;37.60;;;16.50;;
77814;SDS011;67002;52.124;21.210;2023-02-15T04:29:27;36.40;;;17.70;;
77814;SDS011;67002;52.124;21.210;2023-02-15T04:31:58;39.90;;;18.70;;
77814;SDS011;67002;52.124;21.210;2023-02-15T04:34:28;35.50;;;16.90;;
77814;SDS011;67002;52.124;21.210;2023-02-15T04:36:56;36.90;;;17.40;;
77814;SDS011;67002;52.124;21.210;2023-02-15T04:39:25;38.80;;;19.10;;
77814;SDS011;67002;52.124;21.210;2023-02-15T04:41:53;44.20;;;19.90;;
77814;SDS011;67002;52.124;21.210;2023-02-15T04:44:21;38.90;;;18.30;;
77814;SDS011;67002;52.124;21.210;2023-02-15T04:46:50;35.40;;;17.20;;
77814;SDS011;67002;52.124;21.210;2023-02-15T04:49:18;39.50;;;18.50;;
77814;SDS011;67002;52.124;21.210;2023-02-15T04:51:46;37.80;;;18.50;;
77814;SDS011;67002;52.124;21.210;2023-02-15T04:54:14;36.30;;;17.70;;
77814;SDS011;67002;52.124;21.210;2023-02-15T04:56:43;37.00;;;17.30;;
77814;SDS011;67002;52.124;21.210;2023-02-15T05:01:39;30.70;;;14.50;;
77814;SDS011;67002;52.124;21.210;2023-02-15T05:04:08;46.00;;;19.50;;
77814;SDS011;67002;52.124;21.210;2023-02-15T05:06:36;38.10;;;17.30;;
77814;SDS011;67002;52.124;21.210;2023-02-15T05:09:04;41.10;;;18.80;;
77814;SDS011;67002;52.124;21.210;2023-02-15T05:11:33;40.50;;;17.50;;
77814;SDS011;67002;52.124;21.210;2023-02-15T05:14:01;36.60;;;17.90;;
77814;SDS011;67002;52.124;21.210;2023-02-15T05:16:29;40.40;;;18.10;;
77814;SDS011;67002;52.124;21.210;2023-02-15T05:18:58;40.40;;;18.10;;
77814;SDS011;67002;52.124;21.210;2023-02-15T05:21:26;37.70;;;18.00;;
77814;SDS011;67002;52.124;21.210;2023-02-15T05:23:54;33.20;;;14.60;;
77814;SDS011;67002;52.124;21.210;2023-02-15T05:26:23;44.40;;;18.30;;
77814;SDS011;67002;52.124;21.210;2023-02-15T05:29:07;40.90;;;18.70;;
77814;SDS011;67002;52.124;21.210;2023-02-15T05:31:35;35.00;;;17.40;;
77814;SDS011;67002;52.124;21.210;2023-02-15T05:34:04;35.10;;;18.30;;
77814;SDS011;67002;52.124;21.210;2023-02-15T05:36:33;34.80;;;17.70;;
77814;SDS011;67002;52.124;21.210;2023-02-15T05:39:01;31.50;;;14.00;;
77814;SDS011;67002;52.124;21.210;2023-02-15T05:41:30;37.70;;;16.10;;
77814;SDS011;67002;52.124;21.210;2023-02-15T05:43:59;34.30;;;15.60;;
77814;SDS011;67002;52.124;21.210;2023-02-15T05:46:27;31.30;;;14.50;;
77814;SDS011;67002;52.124;21.210;2023-02-15T05:48:55;32.70;;;15.30;;
77814;SDS011;67002;52.124;21.210;2023-02-15T05:51:23;33.80;;;14.40;;
77814;SDS011;67002;52.124;21.210;2023-02-15T05:53:52;24.50;;;13.50;;
77814;SDS011;67002;52.124;21.210;2023-02-15T05:56:20;29.90;;;14.70;;
77814;SDS011;67002;52.124;21.210;2023-02-15T05:58:48;32.10;;;14.10;;
77814;SDS011;67002;52.124;21.210;2023-02-15T06:01:17;29.50;;;13.90;;
77814;SDS011;67002;52.124;21.210;2023-02-15T06:03:48;28.20;;;15.50;;
77814;SDS011;67002;52.124;21.210;2023-02-15T06:06:17;29.30;;;14.20;;
77814;SDS011;67002;52.124;21.210;2023-02-15T06:08:45;29.40;;;14.50;;
77814;SDS011;67002;52.124;21.210;2023-02-15T06:11:13;34.60;;;14.90;;
77814;SDS011;67002;52.124;21.210;2023-02-15T06:13:42;33.20;;;14.70;;
77814;SDS011;67002;52.124;21.210;2023-02-15T06:16:10;28.40;;;12.90;;
77814;SDS011;67002;52.124;21.210;2023-02-15T06:18:39;24.70;;;11.70;;
77814;SDS011;67002;52.124;21.210;2023-02-15T06:21:07;24.90;;;12.50;;
77814;SDS011;67002;52.124;21.210;2023-02-15T06:23:35;30.70;;;14.20;;
77814;SDS011;67002;52.124;21.210;2023-02-15T06:26:04;26.40;;;14.00;;
77814;SDS011;67002;52.124;21.210;2023-02-15T06:28:32;26.10;;;14.40;;
77814;SDS011;67002;52.124;21.210;2023-02-15T06:31:01;29.30;;;13.90;;
77814;SDS011;67002;52.124;21.210;2023-02-15T06:33:29;24.80;;;13.40;;
77814;SDS011;67002;52.124;21.210;2023-02-15T06:35:59;30.60;;;13.30;;
77814;SDS011;67002;52.124;21.210;2023-02-15T06:38:28;22.70;;;11.90;;
77814;SDS011;67002;52.124;21.210;2023-02-15T06:40:57;26.80;;;14.00;;
77814;SDS011;67002;52.124;21.210;2023-02-15T06:43:25;26.60;;;13.40;;
77814;SDS011;67002;52.124;21.210;2023-02-15T06:45:54;25.20;;;12.00;;
77814;SDS011;67002;52.124;21.210;2023-02-15T06:48:22;24.60;;;11.70;;
77814;SDS011;67002;52.124;21.210;2023-02-15T06:50:50;21.00;;;10.90;;
77814;SDS011;67002;52.124;21.210;2023-02-15T06:53:19;25.20;;;11.40;;
77814;SDS011;67002;52.124;21.210;2023-02-15T06:55:47;24.00;;;11.60;;
77814;SDS011;67002;52.124;21.210;2023-02-15T06:58:15;24.30;;;12.40;;
77814;SDS011;67002;52.124;21.210;2023-02-15T07:00:43;22.30;;;12.50;;
77814;SDS011;67002;52.124;21.210;2023-02-15T07:03:13;25.50;;;12.20;;
77814;SDS011;67002;52.124;21.210;2023-02-15T07:05:41;24.80;;;12.10;;
77814;SDS011;67002;52.124;21.210;2023-02-15T07:08:10;24.30;;;13.40;;
77814;SDS011;67002;52.124;21.210;2023-02-15T07:10:38;24.90;;;12.40;;
77814;SDS011;67002;52.124;21.210;2023-02-15T07:13:06;24.30;;;11.90;;
77814;SDS011;67002;52.124;21.210;2023-02-15T07:15:35;22.50;;;12.20;;
77814;SDS011;67002;52.124;21.210;2023-02-15T07:18:03;25.10;;;11.70;;
77814;SDS011;67002;52.124;21.210;2023-02-15T07:20:32;23.00;;;11.40;;
77814;SDS011;67002;52.124;21.210;2023-02-15T07:23:04;22.50;;;11.30;;
77814;SDS011;67002;52.124;21.210;2023-02-15T07:25:32;22.40;;;10.30;;
77814;SDS011;67002;52.124;21.210;2023-02-15T07:28:01;19.00;;;9.50;;
77814;SDS011;67002;52.124;21.210;2023-02-15T07:30:30;21.70;;;11.40;;
77814;SDS011;67002;52.124;21.210;2023-02-15T07:32:59;21.30;;;11.50;;
77814;SDS011;67002;52.124;21.210;2023-02-15T07:35:48;22.30;;;11.30;;
77814;SDS011;67002;52.124;21.210;2023-02-15T07:38:17;27.90;;;13.60;;
77814;SDS011;67002;52.124;21.210;2023-02-15T07:40:46;26.20;;;13.30;;
77814;SDS011;67002;52.124;21.210;2023-02-15T07:43:14;27.10;;;12.10;;
77814;SDS011;67002;52.124;21.210;2023-02-15T07:45:42;28.80;;;11.80;;
77814;SDS011;67002;52.124;21.210;2023-02-15T07:48:11;26.60;;;12.70;;
77814;SDS011;67002;52.124;21.210;2023-02-15T07:50:39;23.50;;;11.80;;
77814;SDS011;67002;52.124;21.210;2023-02-15T07:53:07;28.80;;;13.00;;
77814;SDS011;67002;52.124;21.210;2023-02-15T07:55:36;20.70;;;10.00;;
77814;SDS011;67002;52.124;21.210;2023-02-15T07:58:04;26.80;;;11.20;;
77814;SDS011;67002;52.124;21.210;2023-02-15T08:00:32;28.50;;;12.50;;
77814;SDS011;67002;52.124;21.210;2023-02-15T08:03:22;28.80;;;11.60;;
77814;SDS011;67002;52.124;21.210;2023-02-15T08:05:55;25.90;;;10.70;;
77814;SDS011;67002;52.124;21.210;2023-02-15T08:08:25;18.50;;;9.00;;
77814;SDS011;67002;52.124;21.210;2023-02-15T08:11:00;26.30;;;11.20;;
77814;SDS011;67002;52.124;21.210;2023-02-15T08:13:48;22.20;;;10.20;;
77814;SDS011;67002;52.124;21.210;2023-02-15T08:16:27;17.40;;;8.90;;
77814;SDS011;67002;52.124;21.210;2023-02-15T08:19:00;15.80;;;8.80;;
77814;SDS011;67002;52.124;21.210;2023-02-15T08:21:29;20.50;;;9.90;;
77814;SDS011;67002;52.124;21.210;2023-02-15T08:23:58;19.60;;;10.10;;
77814;SDS011;67002;52.124;21.210;2023-02-15T08:26:27;19.00;;;8.60;;
77814;SDS011;67002;52.124;21.210;2023-02-15T08:28:56;19.70;;;8.50;;
77814;SDS011;67002;52.124;21.210;2023-02-15T08:31:24;19.00;;;9.30;;
77814;SDS011;67002;52.124;21.210;2023-02-15T08:33:54;18.80;;;9.10;;
77814;SDS011;67002;52.124;21.210;2023-02-15T08:36:23;17.70;;;7.90;;
77814;SDS011;67002;52.124;21.210;2023-02-15T08:38:52;18.90;;;10.00;;
77814;SDS011;67002;52.124;21.210;2023-02-15T08:43:49;15.50;;;7.60;;
77814;SDS011;67002;52.124;21.210;2023-02-15T08:46:18;16.40;;;8.20;;
77814;SDS011;67002;52.124;21.210;2023-02-15T08:48:48;18.30;;;8.90;;
77814;SDS011;67002;52.124;21.210;2023-02-15T08:53:45;12.70;;;6.50;;
77814;SDS011;67002;52.124;21.210;2023-02-15T08:56:17;16.20;;;8.20;;
77814;SDS011;67002;52.124;21.210;2023-02-15T08:58:47;15.60;;;7.60;;
77814;SDS011;67002;52.124;21.210;2023-02-15T09:01:16;23.50;;;10.00;;
77814;SDS011;67002;52.124;21.210;2023-02-15T09:03:48;18.30;;;9.50;;
77814;SDS011;67002;52.124;21.210;2023-02-15T09:06:19;19.60;;;9.90;;
77814;SDS011;67002;52.124;21.210;2023-02-15T09:08:48;21.20;;;10.50;;
77814;SDS011;67002;52.124;21.210;2023-02-15T09:11:18;26.90;;;11.20;;
77814;SDS011;67002;52.124;21.210;2023-02-15T09:13:51;25.00;;;11.50;;
77814;SDS011;67002;52.124;21.210;2023-02-15T09:16:20;25.50;;;12.90;;
77814;SDS011;67002;52.124;21.210;2023-02-15T09:18:50;23.00;;;11.30;;
77814;SDS011;67002;52.124;21.210;2023-02-15T09:21:19;23.60;;;11.20;;
77814;SDS011;67002;52.124;21.210;2023-02-15T09:23:49;23.00;;;12.10;;
77814;SDS011;67002;52.124;21.210;2023-02-15T09:26:19;23.90;;;12.70;;
77814;SDS011;67002;52.124;21.210;2023-02-15T09:28:51;23.70;;;12.10;;
77814;SDS011;67002;52.124;21.210;2023-02-15T09:31:22;24.90;;;11.20;;
77814;SDS011;67002;52.124;21.210;2023-02-15T09:33:52;25.50;;;11.60;;
77814;SDS011;67002;52.124;21.210;2023-02-15T09:38:52;29.00;;;12.60;;
77814;SDS011;67002;52.124;21.210;2023-02-15T09:41:27;27.00;;;11.80;;
77814;SDS011;67002;52.124;21.210;2023-02-15T09:44:10;31.90;;;14.20;;
77814;SDS011;67002;52.124;21.210;2023-02-15T09:46:46;31.10;;;13.70;;
77814;SDS011;67002;52.124;21.210;2023-02-15T09:49:25;25.60;;;12.40;;
77814;SDS011;67002;52.124;21.210;2023-02-15T09:52:04;26.30;;;9.60;;
77814;SDS011;67002;52.124;21.210;2023-02-15T09:54:55;24.20;;;10.50;;
77814;SDS011;67002;52.124;21.210;2023-02-15T09:57:33;26.60;;;12.90;;
77814;SDS011;67002;52.124;21.210;2023-02-15T10:00:09;30.30;;;13.40;;
77814;SDS011;67002;52.124;21.210;2023-02-15T10:02:46;24.50;;;12.00;;
77814;SDS011;67002;52.124;21.210;2023-02-15T10:05:24;21.00;;;10.40;;
77814;SDS011;67002;52.124;21.210;2023-02-15T10:08:07;31.30;;;13.40;;
77814;SDS011;67002;52.124;21.210;2023-02-15T10:10:57;23.70;;;10.60;;
77814;SDS011;67002;52.124;21.210;2023-02-15T10:13:48;28.20;;;13.30;;
77814;SDS011;67002;52.124;21.210;2023-02-15T10:16:23;26.80;;;12.60;;
77814;SDS011;67002;52.124;21.210;2023-02-15T10:18:55;30.30;;;13.80;;
77814;SDS011;67002;52.124;21.210;2023-02-15T10:21:33;28.80;;;12.60;;
77814;SDS011;67002;52.124;21.210;2023-02-15T10:24:11;29.80;;;14.90;;
77814;SDS011;67002;52.124;21.210;2023-02-15T10:26:51;30.70;;;13.60;;
77814;SDS011;67002;52.124;21.210;2023-02-15T10:29:26;25.10;;;12.60;;
77814;SDS011;67002;52.124;21.210;2023-02-15T10:32:01;27.00;;;13.20;;
77814;SDS011;67002;52.124;21.210;2023-02-15T10:34:37;27.30;;;12.60;;
77814;SDS011;67002;52.124;21.210;2023-02-15T10:37:12;28.80;;;12.80;;
77814;SDS011;67002;52.124;21.210;2023-02-15T10:39:50;27.70;;;13.10;;
77814;SDS011;67002;52.124;21.210;2023-02-15T10:42:25;26.90;;;11.80;;
77814;SDS011;67002;52.124;21.210;2023-02-15T10:45:06;28.90;;;13.90;;
77814;SDS011;67002;52.124;21.210;2023-02-15T10:47:44;28.60;;;14.10;;
77814;SDS011;67002;52.124;21.210;2023-02-15T10:50:22;28.40;;;13.70;;
77814;SDS011;67002;52.124;21.210;2023-02-15T10:52:57;26.30;;;13.20;;
77814;SDS011;67002;52.124;21.210;2023-02-15T10:55:35;23.10;;;10.60;;
77814;SDS011;67002;52.124;21.210;2023-02-15T10:58:11;29.00;;;14.00;;
77814;SDS011;67002;52.124;21.210;2023-02-15T11:00:47;25.70;;;12.90;;
77814;SDS011;67002;52.124;21.210;2023-02-15T11:03:35;26.90;;;12.50;;
77814;SDS011;67002;52.124;21.210;2023-02-15T11:06:08;26.10;;;12.00;;
77814;SDS011;67002;52.124;21.210;2023-02-15T11:08:39;25.60;;;12.70;;
77814;SDS011;67002;52.124;21.210;2023-02-15T11:11:11;26.70;;;11.90;;
77814;SDS011;67002;52.124;21.210;2023-02-15T11:13:43;27.00;;;13.30;;
77814;SDS011;67002;52.124;21.210;2023-02-15T11:16:14;23.70;;;11.20;;
77814;SDS011;67002;52.124;21.210;2023-02-15T11:18:46;21.70;;;8.70;;
77814;SDS011;67002;52.124;21.210;2023-02-15T11:21:19;22.80;;;10.90;;
77814;SDS011;67002;52.124;21.210;2023-02-15T11:23:49;24.20;;;10.50;;
77814;SDS011;67002;52.124;21.210;2023-02-15T11:26:21;26.00;;;12.50;;
77814;SDS011;67002;52.124;21.210;2023-02-15T11:28:55;22.20;;;11.10;;
77814;SDS011;67002;52.124;21.210;2023-02-15T11:31:26;21.70;;;11.20;;
77814;SDS011;67002;52.124;21.210;2023-02-15T11:33:58;21.60;;;9.70;;
77814;SDS011;67002;52.124;21.210;2023-02-15T11:36:31;18.90;;;9.10;;
77814;SDS011;67002;52.124;21.210;2023-02-15T11:39:02;21.30;;;10.10;;
77814;SDS011;67002;52.124;21.210;2023-02-15T11:44:05;24.50;;;10.90;;
77814;SDS011;67002;52.124;21.210;2023-02-15T11:46:37;22.20;;;10.60;;
77814;SDS011;67002;52.124;21.210;2023-02-15T11:49:09;25.50;;;10.70;;
77814;SDS011;67002;52.124;21.210;2023-02-15T11:51:47;22.70;;;11.30;;
77814;SDS011;67002;52.124;21.210;2023-02-15T11:54:17;23.70;;;11.60;;
77814;SDS011;67002;52.124;21.210;2023-02-15T11:59:14;23.70;;;11.50;;
77814;SDS011;67002;52.124;21.210;2023-02-15T12:01:46;24.70;;;10.20;;
77814;SDS011;67002;52.124;21.210;2023-02-15T12:04:16;24.40;;;11.10;;
77814;SDS011;67002;52.124;21.210;2023-02-15T12:06:49;27.30;;;12.10;;
77814;SDS011;67002;52.124;21.210;2023-02-15T12:09:23;25.50;;;11.60;;
77814;SDS011;67002;52.124;21.210;2023-02-15T12:11:55;28.80;;;13.60;;
77814;SDS011;67002;52.124;21.210;2023-02-15T12:14:52;24.10;;;11.70;;
77814;SDS011;67002;52.124;21.210;2023-02-15T12:17:21;25.00;;;11.50;;
77814;SDS011;67002;52.124;21.210;2023-02-15T12:19:51;23.00;;;12.70;;
77814;SDS011;67002;52.124;21.210;2023-02-15T12:22:22;24.40;;;11.50;;
77814;SDS011;67002;52.124;21.210;2023-02-15T12:24:51;27.50;;;13.00;;
77814;SDS011;67002;52.124;21.210;2023-02-15T12:27:22;28.60;;;12.80;;
77814;SDS011;67002;52.124;21.210;2023-02-15T12:29:52;26.20;;;11.90;;
77814;SDS011;67002;52.124;21.210;2023-02-15T12:32:24;31.70;;;14.10;;
77814;SDS011;67002;52.124;21.210;2023-02-15T12:34:54;30.70;;;13.40;;
77814;SDS011;67002;52.124;21.210;2023-02-15T12:37:29;33.00;;;13.90;;
77814;SDS011;67002;52.124;21.210;2023-02-15T12:39:59;25.80;;;12.50;;
77814;SDS011;67002;52.124;21.210;2023-02-15T12:42:28;28.40;;;13.50;;
77814;SDS011;67002;52.124;21.210;2023-02-15T12:45:20;30.80;;;14.50;;
77814;SDS011;67002;52.124;21.210;2023-02-15T12:48:09;28.50;;;14.00;;
77814;SDS011;67002;52.124;21.210;2023-02-15T12:50:43;32.20;;;14.50;;
77814;SDS011;67002;52.124;21.210;2023-02-15T12:53:14;30.20;;;13.70;;
77814;SDS011;67002;52.124;21.210;2023-02-15T12:55:49;29.40;;;13.70;;
77814;SDS011;67002;52.124;21.210;2023-02-15T12:58:20;37.70;;;15.10;;
77814;SDS011;67002;52.124;21.210;2023-02-15T13:00:55;37.40;;;15.60;;
77814;SDS011;67002;52.124;21.210;2023-02-15T13:03:31;31.90;;;14.70;;
77814;SDS011;67002;52.124;21.210;2023-02-15T13:05:59;35.30;;;15.30;;
77814;SDS011;67002;52.124;21.210;2023-02-15T13:08:34;34.10;;;15.20;;
77814;SDS011;67002;52.124;21.210;2023-02-15T13:11:05;28.70;;;14.90;;
77814;SDS011;67002;52.124;21.210;2023-02-15T13:13:38;32.20;;;15.60;;
77814;SDS011;67002;52.124;21.210;2023-02-15T13:16:19;31.90;;;15.50;;
77814;SDS011;67002;52.124;21.210;2023-02-15T13:18:52;38.60;;;17.20;;
77814;SDS011;67002;52.124;21.210;2023-02-15T13:21:21;33.60;;;14.70;;
77814;SDS011;67002;52.124;21.210;2023-02-15T13:23:53;34.10;;;15.10;;
77814;SDS011;67002;52.124;21.210;2023-02-15T13:26:26;34.30;;;15.40;;
77814;SDS011;67002;52.124;21.210;2023-02-15T13:28:57;27.00;;;12.00;;
77814;SDS011;67002;52.124;21.210;2023-02-15T13:31:28;31.00;;;14.90;;
77814;SDS011;67002;52.124;21.210;2023-02-15T13:34:01;31.80;;;14.50;;
77814;SDS011;67002;52.124;21.210;2023-02-15T13:36:37;34.70;;;14.70;;
77814;SDS011;67002;52.124;21.210;2023-02-15T13:39:14;33.20;;;15.20;;
77814;SDS011;67002;52.124;21.210;2023-02-15T13:44:18;33.10;;;14.30;;
77814;SDS011;67002;52.124;21.210;2023-02-15T13:46:55;35.40;;;15.70;;
77814;SDS011;67002;52.124;21.210;2023-02-15T13:49:35;34.50;;;14.80;;
77814;SDS011;67002;52.124;21.210;2023-02-15T13:52:14;22.00;;;10.70;;
77814;SDS011;67002;52.124;21.210;2023-02-15T13:54:50;30.60;;;14.20;;
77814;SDS011;67002;52.124;21.210;2023-02-15T13:57:27;37.10;;;17.20;;
77814;SDS011;67002;52.124;21.210;2023-02-15T14:00:08;34.80;;;16.00;;
77814;SDS011;67002;52.124;21.210;2023-02-15T14:02:58;40.00;;;17.10;;
77814;SDS011;67002;52.124;21.210;2023-02-15T14:05:43;24.60;;;11.40;;
77814;SDS011;67002;52.124;21.210;2023-02-15T14:08:18;42.30;;;17.80;;
77814;SDS011;67002;52.124;21.210;2023-02-15T14:10:53;37.00;;;17.70;;
77814;SDS011;67002;52.124;21.210;2023-02-15T14:13:34;39.70;;;16.80;;
77814;SDS011;67002;52.124;21.210;2023-02-15T14:16:11;99.70;;;19.30;;
77814;SDS011;67002;52.124;21.210;2023-02-15T14:18:46;37.70;;;16.80;;
77814;SDS011;67002;52.124;21.210;2023-02-15T14:21:17;31.80;;;15.40;;
77814;SDS011;67002;52.124;21.210;2023-02-15T14:23:52;30.10;;;15.20;;
77814;SDS011;67002;52.124;21.210;2023-02-15T14:26:30;35.90;;;15.60;;
77814;SDS011;67002;52.124;21.210;2023-02-15T14:29:07;32.60;;;15.30;;
77814;SDS011;67002;52.124;21.210;2023-02-15T14:31:43;40.70;;;17.60;;
77814;SDS011;67002;52.124;21.210;2023-02-15T14:34:17;35.60;;;15.70;;
77814;SDS011;67002;52.124;21.210;2023-02-15T14:36:48;32.40;;;14.90;;
77814;SDS011;67002;52.124;21.210;2023-02-15T14:39:21;30.00;;;14.60;;
77814;SDS011;67002;52.124;21.210;2023-02-15T14:42:14;38.50;;;17.80;;
77814;SDS011;67002;52.124;21.210;2023-02-15T14:44:48;37.00;;;15.90;;
77814;SDS011;67002;52.124;21.210;2023-02-15T14:47:22;30.40;;;15.30;;
77814;SDS011;67002;52.124;21.210;2023-02-15T14:49:54;32.80;;;14.40;;
77814;SDS011;67002;52.124;21.210;2023-02-15T14:52:22;35.10;;;15.20;;
77814;SDS011;67002;52.124;21.210;2023-02-15T14:54:57;32.40;;;15.00;;
77814;SDS011;67002;52.124;21.210;2023-02-15T14:57:26;36.10;;;16.20;;
77814;SDS011;67002;52.124;21.210;2023-02-15T15:02:59;38.40;;;17.50;;
77814;SDS011;67002;52.124;21.210;2023-02-15T15:05:29;36.30;;;16.70;;
77814;SDS011;67002;52.124;21.210;2023-02-15T15:08:01;35.60;;;15.70;;
77814;SDS011;67002;52.124;21.210;2023-02-15T15:10:39;36.80;;;16.30;;
77814;SDS011;67002;52.124;21.210;2023-02-15T15:18:58;38.40;;;16.80;;